Tiempo atmosférico en la estación meteorológica de Lubia, Soria (1100 m.)



Fecha
DESCASC
Temp. máxima en grados centígrados (hora)
DESCASC
Temp. mínima en grados centígrados (hora)
DESCASC
Temp. media en grados centígrados
DESCASC
Racha de viento máxima en m/sg (hora)
DESCASC
Velocidad máxima media en intervalos de 10 minutos(hora)
DESCASC
Precipitaciones diarias en mm
DESCASC
Precipitaciones de 00:00 a 06:00 en mm
DESCASC
Precipitaciones de 06:00 a 12:00 en mm
DESCASC
Precipitaciones de 12:00 a 18:00 en mm
DESCASC
Precipitaciones de 18:00 a 24:00 en mm
DESCASC
23-06-2019 30.5 (17:30) 14.3 (06:40) 22.4 12.22 (14:20) 6.39 (14:20) 0 0 0 0 0
22-06-2019 27.1 (15:10) 6.9 (06:10) 17 11.11 (15:50) 5.28 (17:50) 0 0 0 0 0
21-06-2019 20.7 (15:30) 10.3 (07:00) 15.5 9.44 (15:00) 5.28 (15:10) 0 0 0 0 0
20-06-2019 25.1 (16:20) 10.6 (00:00) 17.9 10.56 (20:50) 6.11 (20:50) 0 0 0 0 0
19-06-2019 24.8 (17:40) 11.2 (00:00) 18 10 (12:20) 4.17 (13:50) -- 0 0 -- 5.8
18-06-2019 27.1 (16:10) 13.1 (00:00) 20.1 13.89 (15:50) 8.33 (17:50) 0 0 0 0 0
17-06-2019 28.2 (16:40) 9.5 (00:00) 18.9 16.94 (15:00) 5.28 (15:00) 0 0 0 0 0
16-06-2019 26.6 (16:10) 5.5 (00:00) 16.1 8.61 (17:30) 5 (14:50) 0 0 0 0 0
15-06-2019 21.4 (17:00) 7.5 (00:00) 14.4 10 (15:10) 5.83 (02:20) 0 0 0 0 0
14-06-2019 22.8 (15:50) 8.6 (00:00) 15.7 13.33 (16:00) 7.22 (16:00) 0 0 0 0 0
13-06-2019 24.1 (17:00) 3.7 (00:00) 13.9 12.5 (15:40) 6.67 (15:00) 0 0 0 0 0
12-06-2019 19.8 (18:20) -0.3 (00:00) 9.7 11.11 (17:10) 5 (15:30) 0 0 0 0 0
11-06-2019 14.4 (18:00) 4.6 (00:00) 9.5 8.89 (19:20) 5.83 (01:30) 3.2 0 0.2 3 0
10-06-2019 19.6 (16:30) 4.5 (00:00) 12.1 11.39 (17:40) 6.94 (16:10) 0 0 0 0 0
09-06-2019 24.3 (17:10) 8.1 (00:00) 16.2 10.83 (17:10) 5.83 (17:20) 0 0 0 0 0
08-06-2019 22.8 (16:20) 1.1 (00:00) 11.9 10.56 (14:40) 5.56 (10:40) 0 0 0 0 0
07-06-2019 16.2 (16:40) 4.8 (00:00) 10.5 16.39 (03:40) 9.17 (03:40) 0.6 0.6 0 0 0
06-06-2019 19.9 (17:10) 3.6 (00:00) 11.7 15.83 (18:30) 8.61 (16:30) 0 0 0 0 0
05-06-2019 -- (--) -- (--) -- -- (--) -- (--) -- -- -- 1.8 0
04-06-2019 25.8 (16:40) 10.9 (00:00) 18.3 14.44 (16:20) 7.78 (16:00) 0 0 0 0 0
03-06-2019 28.6 (16:30) 11.5 (00:00) 20.1 9.72 (14:10) 5.83 (16:10) 0 0 0 0 0
02-06-2019 30.2 (15:40) 10.4 (00:00) 20.3 12.22 (20:20) 4.72 (15:00) 2 0 0 0 2
01-06-2019 29.9 (16:20) 9.6 (00:00) 19.8 8.06 (21:00) 4.72 (21:10) 0 0 0 0 0
31-05-2019 28.2 (17:40) 7.4 (00:00) 17.8 7.5 (19:30) 4.17 (19:50) 0 0 0 0 0
30-05-2019 24.6 (16:50) 5.5 (00:00) 15.1 9.72 (16:10) 5.28 (16:10) 0 0 0 0 0
29-05-2019 17.4 (15:30) 1.7 (00:00) 9.5 11.94 (17:40) 7.22 (17:00) 0 0 0 0 0
28-05-2019 16.2 (14:20) 3.5 (00:00) 9.9 11.39 (16:30) 6.94 (17:40) 0 0 0 0 0
27-05-2019 21.7 (14:30) 5.3 (00:00) 13.5 11.11 (17:10) 6.11 (17:10) 0 0 0 0 0
26-05-2019 18.4 (16:20) 1.4 (00:00) 9.9 10.28 (15:20) 6.39 (19:20) 0 0 0 0 0

Gráficas

Temp. máximas Temp. mínimas Temp. medias Precipitaciones Rachas de viento máximas Velocidades máximas media en intervalos de 10 minutos

Datos horarios

Fecha y hora oficial Temperatura (ºC) Velocidad del viento (km/h) Dirección del viento Racha (km/h) Dirección de racha Precipitación (mm) Presión (hPa) Tendencia (hPa) Humedad (%)
2019-06-24 23:00:00 21.2 16 Oeste 27 Oeste 0 -- -- 51
2019-06-24 22:00:00 23.1 6 Oeste 13 Oeste 0 -- -- 41
2019-06-24 21:00:00 25.3 12 Sudoeste 22 Sudoeste 0 -- -- 37
2019-06-24 20:00:00 26.9 12 Sur 26 Sur 0 -- -- 34
2019-06-24 19:00:00 27.5 14 Sudoeste 29 Sur 0 -- -- 32
2019-06-24 18:00:00 28 16 Sur 29 Sudeste 0 -- -- 32
2019-06-24 17:00:00 25.5 8 Sur 20 Sur 0 -- -- 38
2019-06-24 16:00:00 25.5 10 Sur 21 Sudeste 0 -- -- 37
2019-06-24 15:00:00 24.6 12 Sur 22 Sur 0 -- -- 37
2019-06-24 14:00:00 24.6 13 Sur 28 Sur 0 -- -- 37
2019-06-24 13:00:00 24.5 14 Sur 26 Sur 0 -- -- 36
2019-06-24 12:00:00 23.4 14 Sur 24 Sudeste 0 -- -- 37
2019-06-24 11:00:00 22.8 11 Sur 22 Sur 0 -- -- 38
2019-06-24 10:00:00 21.5 14 Sur 26 Sudeste 0 -- -- 37
2019-06-24 09:00:00 20.9 11 Sudeste 21 Sudeste 0 -- -- 39
2019-06-24 08:00:00 19 2 Sudoeste 9 Este 0 -- -- 46
2019-06-24 07:00:00 15 4 Norte 6 Sur 0 -- -- 53
2019-06-24 06:00:00 18.4 4 Sudoeste 24 Sur 0 -- -- 40
2019-06-24 05:00:00 19.5 13 Sur 23 Sur 0 -- -- 44
2019-06-24 04:00:00 20.2 10 Sudoeste 22 Sur 0 -- -- 46
2019-06-24 03:00:00 20.9 10 Sur 18 Sudoeste 0 -- -- 45
2019-06-24 02:00:00 20.2 10 Sur 18 Sur 0 -- -- 47
2019-06-24 01:00:00 19.9 9 Este 14 Este 0 -- -- 48
2019-06-24 00:00:00 19.3 2 Este 6 Este 0 -- -- 46
2019-06-23 23:00:00 20.4 4 Norte 5 Norte 0 -- -- 44
2019-06-23 22:00:00 22.5 2 Oeste 7 Oeste 0 -- -- 38
2019-06-23 21:00:00 26 4 Sudoeste 13 Sudoeste 0 -- -- 34
2019-06-23 20:00:00 27.4 10 Sudoeste 21 Sudoeste 0 -- -- 30
2019-06-23 19:00:00 28.3 15 Sudoeste 31 Sudoeste 0 -- -- 28
2019-06-23 18:00:00 29 18 Sudoeste 35 Sur 0 -- -- 27
2019-06-23 17:00:00 30.1 13 Sudoeste 38 Sur 0 -- -- 29
2019-06-23 16:00:00 28.8 19 Sur 41 Sur 0 -- -- 30
2019-06-23 15:00:00 28.2 22 Sudoeste 44 Sur 0 -- -- 33
2019-06-23 14:00:00 27.5 14 Sur 37 Sudoeste 0 -- -- 34
2019-06-23 13:00:00 25.6 17 Sur 31 Sur 0 -- -- 37
2019-06-23 12:00:00 25.2 12 Sur 27 Sudoeste 0 -- -- 41
2019-06-23 11:00:00 23.7 13 Sur 25 Sudoeste 0 -- -- 46
2019-06-23 10:00:00 21.8 15 Sur 23 Sur 0 -- -- 53
2019-06-23 09:00:00 19.5 10 Sur 19 Sur 0 -- -- 60
2019-06-23 08:00:00 19.3 4 Sudeste 8 Sur 0 -- -- 63
2019-06-23 07:00:00 14.5 5 Sur 12 Sur 0 -- -- 77
2019-06-23 06:00:00 14.5 6 Sur 12 Sudoeste 0 -- -- 76
2019-06-23 05:00:00 15.1 8 Sudoeste 13 Sudoeste 0 -- -- 70
2019-06-23 04:00:00 15.4 6 Sudoeste 14 Sur 0 -- -- 59
2019-06-23 03:00:00 15.9 10 Sudeste 14 Sudeste 0 -- -- 59
2019-06-23 02:00:00 14.5 10 Sudeste 18 Este 0 -- -- 61
2019-06-23 01:00:00 17.8 6 Sur 8 Sur 0 -- -- 47
2019-06-23 00:00:00 18.4 6 Sur 9 Sudoeste 0 -- -- 44
2019-06-22 23:00:00 19.1 6 Sur 10 Sur 0 -- -- 45
2019-06-22 22:00:00 20.1 5 Sudoeste 8 Sudoeste 0 -- -- 45
2019-06-22 21:00:00 24.1 4 Sudoeste 14 Sudoeste 0 -- -- 37
2019-06-22 20:00:00 24.6 10 Sudoeste 29 Sudoeste 0 -- -- 33
2019-06-22 19:00:00 25.6 17 Sudoeste 32 Sur 0 -- -- 31
2019-06-22 18:00:00 25.8 17 Sur 36 Sudeste 0 -- -- 31
2019-06-22 17:00:00 26.8 15 Sudoeste 32 Sudoeste 0 -- -- 32
2019-06-22 16:00:00 26.6 17 Sudoeste 40 Sudoeste 0 -- -- 34
2019-06-22 15:00:00 26.4 13 Sudoeste 32 Oeste 0 -- -- 34
2019-06-22 14:00:00 25.1 10 Sudoeste 33 Sudoeste 0 -- -- 39
2019-06-22 13:00:00 23.6 12 Sudoeste 25 Sudoeste 0 -- -- 45
2019-06-22 12:00:00 21.5 13 Sudoeste 23 Sudoeste 0 -- -- 54
2019-06-22 11:00:00 19.4 8 Sur 16 Sudeste 0 -- -- 61
2019-06-22 10:00:00 17.7 6 Sudeste 12 Sudeste 0 -- -- 61
2019-06-22 09:00:00 15.4 6 Este 10 Este 0 -- -- 68
2019-06-22 08:00:00 12.6 5 Nordeste 8 Nordeste 0 -- -- 74
2019-06-22 07:00:00 7.8 3 Nordeste 7 Nordeste 0 -- -- 100
2019-06-22 06:00:00 7.2 3 Nordeste 9 Nordeste 0 -- -- 100
2019-06-22 05:00:00 8 6 Nordeste 9 Nordeste 0 -- -- 100
2019-06-22 04:00:00 8 6 Este 9 Este 0 -- -- 96
2019-06-22 03:00:00 9.1 7 Este 13 Este 0 -- -- 92
2019-06-22 02:00:00 9.6 6 Este 13 Este 0 -- -- 90
2019-06-22 01:00:00 10.6 9 Este 13 Nordeste 0 -- -- 86
2019-06-22 00:00:00 12 8 Nordeste 15 Nordeste 0 -- -- 79
2019-06-21 23:00:00 12.3 9 Nordeste 18 Nordeste 0 -- -- 77
2019-06-21 22:00:00 13.7 13 Nordeste 23 Nordeste 0 -- -- 71
2019-06-21 21:00:00 16 12 Nordeste 28 Nordeste 0 -- -- 63
2019-06-21 20:00:00 17.8 12 Nordeste 26 Nordeste 0 -- -- 59
2019-06-21 19:00:00 17.8 14 Nordeste 30 Este 0 -- -- 60
2019-06-21 18:00:00 19.8 9 Este 21 Este 0 -- -- 52
2019-06-21 17:00:00 19.9 10 Sudeste 21 Este 0 -- -- 52
2019-06-21 16:00:00 19.6 13 Nordeste 31 Norte 0 -- -- 55
2019-06-21 15:00:00 19.3 18 Nordeste 34 Nordeste 0 -- -- 56
2019-06-21 14:00:00 20 11 Nordeste 20 Este 0 -- -- 56
2019-06-21 13:00:00 19.3 9 Este 19 Este 0 -- -- 57
2019-06-21 12:00:00 18.3 8 Este 17 Nordeste 0 -- -- 61
2019-06-21 11:00:00 16.4 10 Este 18 Este 0 -- -- 70
2019-06-21 10:00:00 15.5 9 Nordeste 17 Nordeste 0 -- -- 74
2019-06-21 09:00:00 14.4 8 Nordeste 13 Nordeste 0 -- -- 78
2019-06-21 08:00:00 13.7 4 Norte 7 Norte 0 -- -- 82
2019-06-21 07:00:00 10.3 5 Nordeste 9 Nordeste 0 -- -- 100
2019-06-21 06:00:00 11.2 2 Nordeste 10 Este 0 -- -- 98
2019-06-21 05:00:00 11.7 3 Norte 8 Norte 0 -- -- 95
2019-06-21 04:00:00 12 5 Nordeste 16 Nordeste 0 -- -- 91
2019-06-21 03:00:00 12.2 4 Norte 14 Noroeste 0 -- -- 91
2019-06-21 02:00:00 12.4 5 Nordeste 15 Nordeste 0 -- -- 91
2019-06-21 01:00:00 12.4 9 Nordeste 19 Nordeste 0 -- -- 88
2019-06-21 00:00:00 11.8 6 Norte 15 Nordeste 0 -- -- 93
2019-06-20 23:00:00 12.2 8 Nordeste 17 Nordeste 0 -- -- 91
2019-06-20 22:00:00 12.8 10 Nordeste 26 Norte 0 -- -- 85
2019-06-20 21:00:00 15.6 9 Norte 38 Oeste 0 -- -- 74
2019-06-20 20:00:00 16.5 14 Nordeste 29 Nordeste 0 -- -- 70
2019-06-20 19:00:00 19.2 17 Nordeste 34 Norte 0 -- -- 62
2019-06-20 18:00:00 19.4 17 Nordeste 32 Nordeste 0 -- -- 60
2019-06-20 17:00:00 22.7 9 Sudeste 22 Sudeste 0 -- -- 42
2019-06-20 16:00:00 23.3 9 Sur 19 Sudoeste 0 -- -- 41
2019-06-20 15:00:00 22.9 9 Sur 24 Sudeste 0 -- -- 44
2019-06-20 14:00:00 22.1 6 Sudeste 23 Este 0 -- -- 51
2019-06-20 13:00:00 21.2 10 Este 21 Sudeste 0 -- -- 55
2019-06-20 12:00:00 19.8 7 Este 17 Este 0 -- -- 65
2019-06-20 11:00:00 17.6 11 Este 18 Este 0 -- -- 76
2019-06-20 10:00:00 16.6 10 Este 15 Sudeste 0 -- -- 82
2019-06-20 09:00:00 14.9 4 Nordeste 8 Este 0 -- -- 81
2019-06-20 08:00:00 14.8 2 Este 5 Este 0 -- -- 79
2019-06-20 07:00:00 11.6 4 Noroeste 7 Noroeste 0 -- -- 88
2019-06-20 06:00:00 10.7 0 Calma 5 Norte 0 -- -- 89
2019-06-20 05:00:00 11.7 2 Norte 8 Oeste 0 -- -- 83
2019-06-20 04:00:00 11.8 6 Oeste 8 Oeste 0 -- -- 82
2019-06-20 03:00:00 12.3 5 Oeste 10 Norte 0 -- -- 86
2019-06-20 02:00:00 14 7 Norte 14 Norte 0 -- -- 76
2019-06-20 01:00:00 14.3 11 Oeste 18 Oeste 0 -- -- 73
2019-06-20 00:00:00 14.8 10 Oeste 14 Oeste 0 -- -- 77
2019-06-19 23:00:00 14.3 10 Sudoeste 15 Sur 0.2 -- -- 90
2019-06-19 22:00:00 14.8 9 Sur 17 Sur 0 -- -- 87
2019-06-19 21:00:00 15.9 7 Sur 22 Oeste 3 -- -- 92
2019-06-19 20:00:00 16.8 10 Oeste 22 Noroeste 2.6 -- -- 80
2019-06-19 19:00:00 22.8 10 Sudoeste 23 Oeste 0 -- -- 43
2019-06-19 18:00:00 23.1 13 Sudoeste 21 Sudoeste 0 -- -- 42
2019-06-19 17:00:00 22.7 6 Este 20 Sudoeste 0 -- -- 45
2019-06-19 16:00:00 22.6 10 Sur 22 Sudoeste 0 -- -- 44
2019-06-19 15:00:00 23.4 8 Sur -- -- -- -- -- 43
2019-06-19 14:00:00 22.8 14 Oeste 28 Oeste 0 -- -- 45
2019-06-19 13:00:00 21.1 11 Oeste 36 Noroeste 0 -- -- 50
2019-06-19 12:00:00 19 9 Oeste 22 Sudoeste 0 -- -- 58
2019-06-19 11:00:00 17.8 14 Oeste 27 Oeste 0 -- -- 62
2019-06-19 10:00:00 18 13 Oeste 23 Noroeste 0 -- -- 64
2019-06-19 09:00:00 15.3 11 Oeste 21 Oeste 0 -- -- 71
2019-06-19 08:00:00 15.1 13 Oeste 20 Oeste 0 -- -- 70
2019-06-19 07:00:00 11.9 7 Oeste 12 Oeste 0 -- -- 80
2019-06-19 06:00:00 11.7 8 Sudoeste 12 Sudoeste 0 -- -- 78
2019-06-19 05:00:00 11.7 5 Oeste 13 Oeste 0 -- -- 77
2019-06-19 04:00:00 13 9 Oeste 17 Oeste 0 -- -- 72
2019-06-19 03:00:00 12.7 8 Oeste 13 Oeste 0 -- -- 68
2019-06-19 02:00:00 14.6 10 Oeste 19 Oeste 0 -- -- 60
2019-06-19 01:00:00 15.3 9 Oeste 16 Noroeste 0 -- -- 56
2019-06-19 00:00:00 15.9 8 Oeste 26 Oeste 0 -- -- 53
2019-06-18 23:00:00 18.5 14 Oeste 24 Oeste 0 -- -- 40
2019-06-18 22:00:00 20.9 13 Sudoeste 36 Sudoeste 0 -- -- 21
2019-06-18 21:00:00 23.5 16 Sudoeste 39 Sudoeste 0 -- -- 19
2019-06-18 20:00:00 25.2 19 Sudoeste 40 Sudoeste 0 -- -- 19
2019-06-18 19:00:00 26.2 21 Sudoeste 46 Sudoeste 0 -- -- 19
2019-06-18 18:00:00 26.5 24 Sudoeste 47 Sudoeste 0 -- -- 19
2019-06-18 17:00:00 26.8 24 Sudoeste 49 Sur 0 -- -- 18
2019-06-18 16:00:00 26.7 27 Sudoeste 50 Sur 0 -- -- 18
2019-06-18 15:00:00 26.3 27 Sudoeste 47 Sudoeste 0 -- -- 20
2019-06-18 14:00:00 25.2 23 Sur 48 Sudoeste 0 -- -- 26
2019-06-18 13:00:00 24.8 26 Sudoeste 47 Sur 0 -- -- 29
2019-06-18 12:00:00 23.6 25 Sur 39 Sur 0 -- -- 28
2019-06-18 11:00:00 22.6 21 Sur 35 Sur 0 -- -- 32
2019-06-18 10:00:00 21.8 17 Sur 29 Sur 0 -- -- 35
2019-06-18 09:00:00 20 14 Sur 24 Sudoeste 0 -- -- 42
2019-06-18 08:00:00 17.1 8 Sur 15 Sudoeste 0 -- -- 43
2019-06-18 07:00:00 13.2 8 Sur 12 Sudeste 0 -- -- 48
2019-06-18 06:00:00 13.9 5 Sur 13 Sudeste 0 -- -- 44
2019-06-18 05:00:00 15.3 8 Sudeste 15 Sur 0 -- -- 43
2019-06-18 04:00:00 15.8 4 Sur 12 Oeste 0 -- -- 42
2019-06-18 03:00:00 16.8 8 Oeste 18 Oeste 0 -- -- 37
2019-06-18 02:00:00 18.6 14 Oeste 22 Oeste 0 -- -- 33
2019-06-18 01:00:00 19.1 9 Sudoeste 22 Oeste 0 -- -- 30
2019-06-18 00:00:00 20.4 8 Sudoeste 13 Sudoeste 0 -- -- 27
2019-06-17 23:00:00 20.6 9 Sudoeste 14 Oeste 0 -- -- 27
2019-06-17 22:00:00 21.7 8 Sudoeste 13 Sudoeste 0 -- -- 27
2019-06-17 21:00:00 23.9 9 Sudoeste 22 Sudoeste 0 -- -- 24
2019-06-17 20:00:00 25.4 15 Sudoeste 26 Sudoeste 0 -- -- 22
2019-06-17 19:00:00 26.8 15 Sudoeste 31 Sur 0 -- -- 22
2019-06-17 18:00:00 27.6 13 Sur 37 Sudoeste 0 -- -- 22
2019-06-17 17:00:00 28.1 14 Sur 31 Sudoeste 0 -- -- 22
2019-06-17 16:00:00 27.7 14 Sur 32 Sur 0 -- -- 22
2019-06-17 15:00:00 26.7 19 Sur 61 Sudoeste 0 -- -- 22
2019-06-17 14:00:00 26.2 16 Sur 32 Sur 0 -- -- 21
2019-06-17 13:00:00 25.3 13 Sudeste 34 Sudeste 0 -- -- 28
2019-06-17 12:00:00 24.8 5 Sudeste 17 Sudoeste 0 -- -- 29
2019-06-17 11:00:00 23.4 8 Sudoeste 15 Nordeste 0 -- -- 31
2019-06-17 10:00:00 22.1 6 Este 12 Este 0 -- -- 37
2019-06-17 09:00:00 20.2 4 Este 8 Nordeste 0 -- -- 38
2019-06-17 08:00:00 18.1 4 Este 6 Este 0 -- -- 43
2019-06-17 07:00:00 10.1 3 Norte 5 Norte 0 -- -- 58
2019-06-17 06:00:00 10.2 4 Norte 10 Sudoeste 0 -- -- 55
2019-06-17 05:00:00 13.9 10 Sudoeste 18 Sudoeste 0 -- -- 41
2019-06-17 04:00:00 13.9 10 Sudoeste 16 Sudoeste 0 -- -- 43
2019-06-17 03:00:00 14.8 10 Sur 13 Sur 0 -- -- 49
2019-06-17 02:00:00 13.3 0 Calma 6 Sudeste 0 -- -- 59
2019-06-17 01:00:00 14.8 5 Sudeste 10 Este 0 -- -- 52
2019-06-17 00:00:00 15.3 7 Este 12 Este 0 -- -- 53
2019-06-16 23:00:00 16.8 6 Nordeste 19 Este 0 -- -- 47
2019-06-16 22:00:00 19.5 5 Sudoeste 10 Sudoeste 0 -- -- 33
2019-06-16 21:00:00 21.9 5 Sudoeste 20 Oeste 0 -- -- 31
2019-06-16 20:00:00 24.4 13 Sudoeste 25 Sudoeste 0 -- -- 25
2019-06-16 19:00:00 25.6 8 Sur 27 Oeste 0 -- -- 24
2019-06-16 18:00:00 24.8 14 Sudoeste 31 Sudoeste 0 -- -- 25
2019-06-16 17:00:00 25.8 14 Sur 26 Sur 0 -- -- 24
2019-06-16 16:00:00 25.6 12 Sudoeste 31 Sudoeste 0 -- -- 24
2019-06-16 15:00:00 24.9 14 Sur 27 Sudoeste 0 -- -- 24
2019-06-16 14:00:00 23.8 13 Sur 30 Oeste 0 -- -- 29
2019-06-16 13:00:00 22.3 8 Sur 26 Sudoeste 0 -- -- 31
2019-06-16 12:00:00 21.1 11 Sudeste 21 Sudeste 0 -- -- 34
2019-06-16 11:00:00 18.9 11 Sudeste 24 Este 0 -- -- 43
2019-06-16 10:00:00 16.6 12 Este 20 Este 0 -- -- 50
2019-06-16 09:00:00 14.6 11 Este 16 Este 0 -- -- 55
2019-06-16 08:00:00 11.9 6 Nordeste 10 Nordeste 0 -- -- 62
2019-06-16 07:00:00 6.3 7 Este 10 Nordeste 0 -- -- 81
2019-06-16 06:00:00 6.7 6 Nordeste 9 Nordeste 0 -- -- 78
2019-06-16 05:00:00 5.8 6 Nordeste 9 Nordeste 0 -- -- 79
2019-06-16 04:00:00 6.7 5 Nordeste 9 Nordeste 0 -- -- 77
2019-06-16 03:00:00 8.1 6 Nordeste 14 Nordeste 0 -- -- 71
2019-06-16 02:00:00 8.9 9 Este 16 Nordeste 0 -- -- 68
2019-06-16 01:00:00 10.3 12 Nordeste 22 Nordeste 0 -- -- 65
2019-06-16 00:00:00 10.8 12 Este 23 Este 0 -- -- 67
2019-06-15 23:00:00 12 9 Nordeste 18 Nordeste 0 -- -- 65
2019-06-15 22:00:00 13.8 9 Nordeste 27 Nordeste 0 -- -- 59
2019-06-15 21:00:00 19.1 5 Noroeste 16 Norte 0 -- -- 30
2019-06-15 20:00:00 19.9 12 Noroeste 26 Noroeste 0 -- -- 29
2019-06-15 19:00:00 20.6 8 Norte 28 Noroeste 0 -- -- 30
2019-06-15 18:00:00 21.2 11 Oeste 30 Noroeste 0 -- -- 28
2019-06-15 17:00:00 21.4 8 Oeste 32 Oeste 0 -- -- 28
2019-06-15 16:00:00 20.2 19 Oeste 36 Noroeste 0 -- -- 31
2019-06-15 15:00:00 19 13 Oeste 31 Oeste 0 -- -- 34
2019-06-15 14:00:00 19.1 13 Oeste 33 Sudoeste 0 -- -- 37
2019-06-15 13:00:00 17.2 16 Oeste 31 Oeste 0 -- -- 43
2019-06-15 12:00:00 15.7 14 Oeste 30 Oeste 0 -- -- 46
2019-06-15 11:00:00 14.9 17 Oeste 26 Oeste 0 -- -- 50
2019-06-15 10:00:00 14.4 12 Oeste 25 Oeste 0 -- -- 55
2019-06-15 09:00:00 11.7 16 Noroeste 31 Noroeste 0 -- -- 63
2019-06-15 08:00:00 8.9 17 Oeste 30 Oeste 0 -- -- 71
2019-06-15 07:00:00 7.8 15 Oeste 30 Oeste 0 -- -- 73
2019-06-15 06:00:00 7.9 17 Oeste 27 Oeste 0 -- -- 68
2019-06-15 05:00:00 8.4 17 Oeste 32 Noroeste 0 -- -- 61
2019-06-15 04:00:00 9.2 19 Oeste 34 Oeste 0 -- -- 57
2019-06-15 03:00:00 10.3 18 Oeste 33 Oeste 0 -- -- 53
2019-06-15 02:00:00 11.6 19 Oeste 28 Oeste 0 -- -- 49
2019-06-15 01:00:00 12.3 17 Oeste 28 Oeste 0 -- -- 48
2019-06-15 00:00:00 13.7 18 Oeste 27 Oeste 0 -- -- 44
2019-06-14 23:00:00 15 11 Sudoeste 28 Sudoeste 0 -- -- 35
2019-06-14 22:00:00 16.6 14 Sudoeste 34 Sudoeste 0 -- -- 33
2019-06-14 21:00:00 18.3 15 Sudoeste 37 Sur 0 -- -- 29
2019-06-14 20:00:00 20.7 21 Sur 40 Sudoeste 0 -- -- 24
2019-06-14 19:00:00 21.9 21 Sudoeste 40 Sudoeste 0 -- -- 24
2019-06-14 18:00:00 22.5 21 Sudoeste 45 Sudoeste 0 -- -- 23
2019-06-14 17:00:00 22.6 26 Sur 47 Sudoeste 0 -- -- 24
2019-06-14 16:00:00 22.4 26 Sur 48 Sur 0 -- -- 26
2019-06-14 15:00:00 22.2 22 Sudoeste 43 Sudoeste 0 -- -- 31
2019-06-14 14:00:00 21.9 19 Sudoeste 38 Sur 0 -- -- 31
2019-06-14 13:00:00 20.4 20 Sudoeste 33 Sudoeste 0 -- -- 39
2019-06-14 12:00:00 21.6 13 Sur 24 Sudoeste 0 -- -- 39
2019-06-14 11:00:00 18.2 12 Sudeste 20 Sur 0 -- -- 55
2019-06-14 10:00:00 16.2 6 Sur 13 Sur 0 -- -- 60
2019-06-14 09:00:00 13 4 Este 8 Este 0 -- -- 65
2019-06-14 08:00:00 9.5 4 Nordeste 9 Norte 0 -- -- 76
2019-06-14 07:00:00 8.7 6 Norte 9 Norte 0 -- -- 87
2019-06-14 06:00:00 9.7 3 Este 7 Este 0 -- -- 83
2019-06-14 05:00:00 10.1 0 Calma 16 Este 0 -- -- 87
2019-06-14 04:00:00 10.9 6 Este 13 Nordeste 0 -- -- 85
2019-06-14 03:00:00 14 9 Sudoeste 14 Sudoeste 0 -- -- 40
2019-06-14 02:00:00 12.4 3 Sur 12 Este 0 -- -- 53
2019-06-14 01:00:00 13.5 5 Nordeste 19 Sudoeste 0 -- -- 53
2019-06-14 00:00:00 14.9 9 Sudoeste 13 Sudoeste 0 -- -- 50
2019-06-13 23:00:00 15.7 8 Sur 17 Oeste 0 -- -- 55
2019-06-13 22:00:00 17.8 8 Sudeste 14 Sudeste 0 -- -- 49
2019-06-13 21:00:00 20.5 10 Sur 27 Sudoeste 0 -- -- 42
2019-06-13 20:00:00 22.1 13 Sudoeste 31 Sur 0 -- -- 37
2019-06-13 19:00:00 21.8 17 Sur 33 Sur 0 -- -- 38
2019-06-13 18:00:00 23.3 23 Sur 40 Sur 0 -- -- 35
2019-06-13 17:00:00 24.1 17 Sur 37 Sur 0 -- -- 34
2019-06-13 16:00:00 23.2 18 Sur 45 Sur 0 -- -- 37
2019-06-13 15:00:00 22.3 24 Sur 42 Sur 0 -- -- 37
2019-06-13 14:00:00 20.4 18 Sudoeste 41 Sur 0 -- -- 41
2019-06-13 13:00:00 20.8 19 Sudoeste 34 Sudoeste 0 -- -- 44
2019-06-13 12:00:00 18.8 19 Sur 37 Sur 0 -- -- 51
2019-06-13 11:00:00 17.1 17 Sur 39 Sudoeste 0 -- -- 59
2019-06-13 10:00:00 14.6 20 Sur 35 Sur 0 -- -- 67
2019-06-13 09:00:00 12.1 10 Sur 26 Sur 0 -- -- 76
2019-06-13 08:00:00 7.4 6 Sudeste 12 Sudeste 0 -- -- 89
2019-06-13 07:00:00 7.4 9 Sudeste 18 Sudeste 0 -- -- 90
2019-06-13 06:00:00 4.8 4 Este 12 Este 0 -- -- 91
2019-06-13 05:00:00 5.9 4 Norte 10 Este 0 -- -- 85
2019-06-13 04:00:00 5.3 3 Este 7 Este 0 -- -- 85
2019-06-13 03:00:00 6.6 4 Nordeste 15 Sudeste 0 -- -- 74
2019-06-13 02:00:00 8.3 9 Sudeste 17 Este 0 -- -- 65
2019-06-13 01:00:00 10 12 Este 22 Este 0 -- -- 57
2019-06-13 00:00:00 11.1 13 Este 22 Este 0 -- -- 55
2019-06-12 23:00:00 11.9 13 Este 22 Este 0 -- -- 53
2019-06-12 22:00:00 12.2 0 Calma 4 Noroeste 0 -- -- 45
2019-06-12 21:00:00 15 0 Calma 4 Oeste 0 -- -- 42
2019-06-12 20:00:00 17.1 0 Calma 16 Sudoeste 0 -- -- 35
2019-06-12 19:00:00 17.5 9 Sudoeste 27 Oeste 0 -- -- 34
2019-06-12 18:00:00 19.4 9 Oeste 40 Sudoeste 0 -- -- 31
2019-06-12 17:00:00 17.2 12 Sur 28 Sudoeste 0 -- -- 34
2019-06-12 16:00:00 16.5 8 Sur 28 Sudoeste 0 -- -- 38
2019-06-12 15:00:00 16.5 13 Sudoeste 24 Sudoeste 0 -- -- 38
2019-06-12 14:00:00 16.6 8 Oeste 25 Oeste 0 -- -- 41
2019-06-12 13:00:00 13.6 15 Sudoeste 27 Oeste 0 -- -- 46
2019-06-12 12:00:00 13.8 11 Oeste 24 Oeste 0 -- -- 50
2019-06-12 11:00:00 12.7 9 Oeste 23 Sudoeste 0 -- -- 55
2019-06-12 10:00:00 11.2 8 Sudoeste 14 Oeste 0 -- -- 58
2019-06-12 09:00:00 10.4 3 Sudeste 8 Sur 0 -- -- 68
2019-06-12 08:00:00 10.3 0 Calma 5 Norte 0 -- -- 68
2019-06-12 07:00:00 0.4 4 Noroeste 6 Noroeste 0 -- -- 100
2019-06-12 06:00:00 0 0 Calma 4 Sudeste 0 -- -- 100
2019-06-12 05:00:00 1.1 0 Calma 9 Sur 0 -- -- 99
2019-06-12 04:00:00 1.9 6 Sur 9 Sudeste 0 -- -- 100
2019-06-12 03:00:00 1.2 4 Nordeste 6 Sudeste 0 -- -- 96
2019-06-12 02:00:00 3 6 Este 12 Este 0 -- -- 89
2019-06-12 01:00:00 3.5 9 Este 11 Este 0 -- -- 90
2019-06-12 00:00:00 4.7 6 Nordeste 12 Nordeste 0 -- -- 82
2019-06-11 23:00:00 4.6 7 Este 10 Nordeste 0 -- -- 85
2019-06-11 22:00:00 7.4 6 Nordeste 16 Norte 0 -- -- 72
2019-06-11 21:00:00 10 10 Norte 24 Norte 0 -- -- 58
2019-06-11 20:00:00 11.3 15 Norte 32 Noroeste 0 -- -- 50
2019-06-11 19:00:00 13.3 12 Norte 28 Noroeste 0 -- -- 45
2019-06-11 18:00:00 14.4 14 Noroeste 26 Norte 0 -- -- 41
2019-06-11 17:00:00 12.9 4 Norte 12 Noroeste 0.2 -- -- 54
2019-06-11 16:00:00 9.4 7 Noroeste 15 Norte 1.2 -- -- 76
2019-06-11 15:00:00 11.8 6 Nordeste 13 Este 0 -- -- 64
2019-06-11 14:00:00 6 8 Nordeste 29 Norte 1.4 -- -- 90
2019-06-11 13:00:00 9.5 11 Nordeste 18 Nordeste 0.2 -- -- 73
2019-06-11 12:00:00 10 9 Este 15 Este 0 -- -- 69
2019-06-11 11:00:00 7.6 7 Este 16 Este 0 -- -- 80
2019-06-11 10:00:00 6.6 9 Nordeste 15 Nordeste 0 -- -- 85
2019-06-11 09:00:00 5.4 10 Nordeste 17 Nordeste 0 -- -- 94
2019-06-11 08:00:00 5 9 Norte 19 Norte 0.2 -- -- 93
2019-06-11 07:00:00 5.8 9 Nordeste 17 Nordeste 0 -- -- 86
2019-06-11 06:00:00 6.2 11 Nordeste 21 Nordeste 0 -- -- 86
2019-06-11 05:00:00 6.2 9 Nordeste 18 Nordeste 0 -- -- 89
2019-06-11 04:00:00 6 11 Este 22 Nordeste 0 -- -- 86
2019-06-11 03:00:00 6.4 13 Este 22 Nordeste 0 -- -- 87
2019-06-11 02:00:00 6.7 15 Este 28 Este 0 -- -- 85
2019-06-11 01:00:00 8.6 17 Este 30 Este 0 -- -- 72
2019-06-11 00:00:00 9.6 16 Este 24 Este 0 -- -- 68
2019-06-10 23:00:00 10.4 12 Este 19 Norte 0 -- -- 65
2019-06-10 22:00:00 11.6 9 Nordeste 21 Noroeste 0 -- -- 61
2019-06-10 21:00:00 14.7 17 Noroeste 27 Noroeste 0 -- -- 40
2019-06-10 20:00:00 17 17 Noroeste 29 Noroeste 0 -- -- 34
2019-06-10 19:00:00 17.1 16 Oeste 35 Oeste 0 -- -- 34
2019-06-10 18:00:00 18.1 22 Noroeste 41 Oeste 0 -- -- 30
2019-06-10 17:00:00 18.3 21 Oeste 39 Oeste 0 -- -- 28
2019-06-10 16:00:00 18.6 20 Oeste 38 Oeste 0 -- -- 31
2019-06-10 15:00:00 19 21 Oeste 37 Oeste 0 -- -- 29
2019-06-10 14:00:00 18 22 Oeste 39 Noroeste 0 -- -- 32
2019-06-10 13:00:00 17.3 16 Oeste 33 Oeste 0 -- -- 42
2019-06-10 12:00:00 16.3 15 Oeste 30 Oeste 0 -- -- 48
2019-06-10 11:00:00 15.2 13 Oeste 23 Oeste 0 -- -- 59
2019-06-10 10:00:00 13.2 10 Oeste 17 Oeste 0 -- -- 70
2019-06-10 09:00:00 9.6 7 Sudoeste 11 Sudoeste 0 -- -- 87
2019-06-10 08:00:00 8.7 3 Sudeste 6 Este 0 -- -- 95
2019-06-10 07:00:00 7.7 3 Sur 6 Sur 0 -- -- 100
2019-06-10 06:00:00 6 2 Oeste 8 Oeste 0 -- -- 100
2019-06-10 05:00:00 5.4 3 Norte 8 Norte 0 -- -- 95
2019-06-10 04:00:00 6.7 5 Nordeste 12 Norte 0 -- -- 92
2019-06-10 03:00:00 7.5 6 Norte 16 Norte 0 -- -- 90
2019-06-10 02:00:00 8.7 11 Norte 21 Norte 0 -- -- 87
2019-06-10 01:00:00 9.6 12 Norte 22 Norte 0 -- -- 86
2019-06-10 00:00:00 10.2 12 Nordeste 19 Nordeste 0 -- -- 83
2019-06-09 23:00:00 11.7 13 Norte 25 Nordeste 0 -- -- 76
2019-06-09 22:00:00 14 10 Norte 24 Nordeste 0 -- -- 71
2019-06-09 21:00:00 18.3 6 Noroeste 21 Norte 0 -- -- 52
2019-06-09 20:00:00 20.3 3 Oeste 15 Oeste 0 -- -- 34
2019-06-09 19:00:00 20.7 9 Oeste 24 Oeste 0 -- -- 33
2019-06-09 18:00:00 21.9 15 Oeste 39 Oeste 0 -- -- 31
2019-06-09 17:00:00 23.8 16 Oeste 29 Sudoeste 0 -- -- 27
2019-06-09 16:00:00 22.6 7 Sur 31 Sudoeste 0 -- -- 29
2019-06-09 15:00:00 22.6 12 Oeste 27 Sudoeste 0 -- -- 29
2019-06-09 14:00:00 22.4 17 Oeste 30 Oeste 0 -- -- 36
2019-06-09 13:00:00 21.4 11 Sudoeste 29 Oeste 0 -- -- 41
2019-06-09 12:00:00 20.8 11 Oeste 20 Noroeste 0 -- -- 45
2019-06-09 11:00:00 19.5 12 Sudoeste 19 Sudoeste 0 -- -- 51
2019-06-09 10:00:00 17.5 12 Sudoeste 21 Sudoeste 0 -- -- 56
2019-06-09 09:00:00 16.2 10 Sudoeste 19 Oeste 0 -- -- 62
2019-06-09 08:00:00 16 0 Calma 12 Sudeste 0 -- -- 63
2019-06-09 07:00:00 10.1 4 Sudeste 15 Sur 0 -- -- 81
2019-06-09 06:00:00 9.5 0 Calma 4 Este 0 -- -- 85
2019-06-09 05:00:00 9.9 0 Calma 14 Sudeste 0 -- -- 81
2019-06-09 04:00:00 10.5 8 Sudeste 12 Sudeste 0 -- -- 80
2019-06-09 03:00:00 9.1 5 Este 7 Este 0 -- -- 84
2019-06-09 02:00:00 9.4 4 Este 8 Este 0 -- -- 80
2019-06-09 01:00:00 9.6 5 Este 7 Este 0 -- -- 82
2019-06-09 00:00:00 11.5 7 Este 9 Este 0 -- -- 73
2019-06-08 23:00:00 14.1 6 Sudeste 19 Este 0 -- -- 64
2019-06-08 22:00:00 15.8 11 Este 21 Este 0 -- -- 60
2019-06-08 21:00:00 18.3 14 Este 26 Sudeste 0 -- -- 51
2019-06-08 20:00:00 19.5 19 Sudeste 30 Sudeste 0 -- -- 47
2019-06-08 19:00:00 20.2 17 Sudeste 30 Este 0 -- -- 45
2019-06-08 18:00:00 21.4 14 Sudeste 28 Sudeste 0 -- -- 42
2019-06-08 17:00:00 21.7 13 Sudeste 33 Sudeste 0 -- -- 39
2019-06-08 16:00:00 21.4 9 Sudeste 28 Sudeste 0 -- -- 39
2019-06-08 15:00:00 21.9 10 Sudeste 38 Este 0 -- -- 39
2019-06-08 14:00:00 18.5 11 Sudeste 28 Este 0 -- -- 41
2019-06-08 13:00:00 18.5 12 Sudeste 30 Sudeste 0 -- -- 38
2019-06-08 12:00:00 16.9 14 Este 31 Sudeste 0 -- -- 42
2019-06-08 11:00:00 15.3 19 Este 31 Este 0 -- -- 48
2019-06-08 10:00:00 13.1 17 Este 26 Este 0 -- -- 54
2019-06-08 09:00:00 11.4 12 Este 17 Este 0 -- -- 59
2019-06-08 08:00:00 7.8 7 Nordeste 11 Nordeste 0 -- -- 74
2019-06-08 07:00:00 2.5 4 Norte 6 Norte 0 -- -- 100
2019-06-08 06:00:00 1.9 3 Norte 8 Nordeste 0 -- -- 97
2019-06-08 05:00:00 2.9 4 Nordeste 11 Este 0 -- -- 95
2019-06-08 04:00:00 3.5 4 Nordeste 11 Este 0 -- -- 90
2019-06-08 03:00:00 3.2 2 Nordeste 11 Este 0 -- -- 87
2019-06-08 02:00:00 4.9 9 Este 17 Sudeste 0 -- -- 81
2019-06-08 01:00:00 5.6 0 Calma 6 Noroeste 0 -- -- 62
2019-06-08 00:00:00 5.7 3 Noroeste 6 Oeste 0 -- -- 63
2019-06-07 23:00:00 7.5 6 Noroeste 10 Noroeste 0 -- -- 56
2019-06-07 22:00:00 9.4 7 Noroeste 14 Oeste 0 -- -- 52
2019-06-07 21:00:00 13.3 12 Noroeste 24 Oeste 0 -- -- 39
2019-06-07 20:00:00 14.9 17 Oeste 32 Noroeste 0 -- -- 36
2019-06-07 19:00:00 15.6 17 Oeste 28 Oeste 0 -- -- 35
2019-06-07 18:00:00 15.7 21 Noroeste 34 Noroeste 0 -- -- 38
2019-06-07 17:00:00 14.7 15 Noroeste 36 Oeste 0 -- -- 41
2019-06-07 16:00:00 14.7 20 Oeste 37 Oeste 0 -- -- 40
2019-06-07 15:00:00 14.5 18 Noroeste 33 Noroeste 0 -- -- 43
2019-06-07 14:00:00 13.6 19 Oeste 40 Oeste 0 -- -- 48
2019-06-07 13:00:00 13.3 21 Oeste 45 Oeste 0 -- -- 49
2019-06-07 12:00:00 11.3 28 Oeste 46 Oeste 0 -- -- 55
2019-06-07 11:00:00 9.1 28 Oeste 51 Oeste 0 -- -- 67
2019-06-07 10:00:00 8.3 25 Oeste 51 Oeste 0 -- -- 69
2019-06-07 09:00:00 7.7 26 Oeste 51 Oeste 0 -- -- 74
2019-06-07 08:00:00 6.4 24 Oeste 51 Oeste 0 -- -- 81
2019-06-07 07:00:00 5 28 Oeste 45 Oeste 0 -- -- 95
2019-06-07 06:00:00 5.3 26 Oeste 41 Oeste 0.2 -- -- 97
2019-06-07 05:00:00 5.6 23 Oeste 40 Oeste 0 -- -- 98
2019-06-07 04:00:00 6.2 27 Oeste 59 Oeste 0.4 -- -- 97
2019-06-07 03:00:00 8.9 29 Oeste 48 Oeste 0 -- -- 85
2019-06-07 02:00:00 13.4 17 Sudoeste 38 Sudoeste 0 -- -- 44
2019-06-07 01:00:00 13.4 14 Sudoeste 30 Sudoeste 0 -- -- 41
2019-06-07 00:00:00 14 13 Sudoeste 31 Sudoeste 0 -- -- 39
2019-06-06 23:00:00 14.1 8 Sudoeste 30 Sudoeste 0 -- -- 38
2019-06-06 22:00:00 15.8 16 Sudoeste 44 Sudoeste 0 -- -- 34
2019-06-06 21:00:00 17.5 22 Sudoeste 56 Sudoeste 0 -- -- 32
2019-06-06 20:00:00 18.8 24 Sur 57 Sudoeste 0 -- -- 29
2019-06-06 19:00:00 19.3 26 Sur 57 Sudoeste 0 -- -- 27
2019-06-06 18:00:00 18.2 25 Sur 52 Sur 0 -- -- 33
2019-06-06 17:00:00 19.5 28 Sur 49 Sur 0 -- -- 33
2019-06-06 16:00:00 18.9 29 Sur 49 Sur 0 -- -- 33
2019-06-06 15:00:00 18.2 25 Sur 49 Sur 0 -- -- 31
2019-06-06 14:00:00 17 23 Sur 42 Sur 0 -- -- 37
2019-06-06 13:00:00 16.4 22 Sudoeste 41 Sur 0 -- -- 39
2019-06-06 12:00:00 14 15 Sur 34 Sudoeste 0 -- -- 51
2019-06-06 11:00:00 13.4 14 Sudeste 25 Sudeste 0 -- -- 55
2019-06-06 10:00:00 13.8 4 Sudeste 10 Sur 0 -- -- 59
2019-06-06 09:00:00 11.9 3 Sudoeste 8 Sur 0 -- -- 65
2019-06-06 08:00:00 7.2 2 Sudeste 7 Sur 0 -- -- 100
2019-06-06 07:00:00 4.6 5 Sur 10 Sur 0 -- -- 100
2019-06-06 06:00:00 3.8 5 Sudeste 8 Sudeste 0 -- -- 100
2019-06-06 05:00:00 4.6 2 Este 7 Este 0 -- -- 100
2019-06-06 04:00:00 5.8 5 Este 8 Este 0 -- -- 100
2019-06-06 03:00:00 5.6 3 Nordeste 11 Este 0 -- -- 100
2019-06-06 02:00:00 6.1 8 Este 15 Este 0 -- -- 98
2019-06-06 01:00:00 6.7 9 Este 19 Este 0 -- -- 93
2019-06-06 00:00:00 7.4 11 Este 16 Este 0 -- -- 91
2019-06-05 23:00:00 8.4 5 Nordeste 15 Este 0 -- -- 86
2019-06-05 22:00:00 9.3 9 Este 20 Este 0 -- -- 80
2019-06-05 21:00:00 10.6 12 Nordeste 23 Oeste 0 -- -- 73
2019-06-05 20:00:00 14.3 13 Noroeste 31 Noroeste 0 -- -- 40
2019-06-05 19:00:00 13.7 11 Oeste 30 Noroeste 0 -- -- 51
2019-06-05 18:00:00 15.2 20 Noroeste 35 Sudoeste 0 -- -- 48
2019-06-05 17:00:00 12.1 19 Noroeste 43 Oeste 0 -- -- 57
2019-06-05 16:00:00 12.7 10 Noroeste 27 Noroeste 0 -- -- 56
2019-06-05 15:00:00 11.3 13 Noroeste 50 Oeste 0.2 -- -- 73
2019-06-05 14:00:00 10.9 14 Noroeste 41 Oeste 1 -- -- 79
2019-06-05 13:00:00 8.8 18 Oeste 40 Oeste 0.6 -- -- 84
2019-06-05 12:00:00 8 22 Oeste 43 Oeste 1.2 -- -- 98
2019-06-05 11:00:00 8.4 24 Oeste 43 Oeste 0 -- -- 92
2019-06-05 10:00:00 9.6 21 Oeste 37 Oeste 0 -- -- 91
2019-06-05 09:00:00 8.5 19 Oeste 41 Oeste 0.6 -- -- 100
2019-06-05 08:00:00 -- -- -- -- -- -- -- -- --
2019-06-05 07:00:00 -- -- -- -- -- -- -- -- --
2019-06-05 06:00:00 10.1 6 Oeste 15 Oeste 0 -- -- 100
2019-06-05 05:00:00 10.4 3 Este 15 Sudeste 0.4 -- -- 100
2019-06-05 04:00:00 10.4 5 Sudeste 12 Sudeste 2.8 -- -- 100
2019-06-05 03:00:00 -- -- -- -- -- -- -- -- --
2019-06-05 02:00:00 -- -- -- -- -- -- -- -- --
2019-06-05 01:00:00 11.4 3 Este 12 Norte 0 -- -- 85
2019-06-05 00:00:00 14 6 Norte 21 Oeste 0 -- -- 61
2019-06-04 23:00:00 15.3 10 Oeste 19 Oeste 0 -- -- 56
2019-06-04 22:00:00 16.4 9 Oeste 14 Oeste 0 -- -- 51
2019-06-04 21:00:00 19.1 13 Oeste 33 Oeste 0 -- -- 45
2019-06-04 20:00:00 22.9 18 Oeste 40 Oeste 0 -- -- 39
2019-06-04 19:00:00 24.4 22 Sudoeste 45 Sudoeste 0 -- -- 29
2019-06-04 18:00:00 23.7 22 Sudoeste 39 Sudoeste 0 -- -- 35
2019-06-04 17:00:00 24.8 24 Sudoeste 52 Sudoeste 0 -- -- 31
2019-06-04 16:00:00 25.3 28 Sudoeste 50 Sudoeste 0 -- -- 33
2019-06-04 15:00:00 24.8 24 Sudoeste 46 Sur 0 -- -- 37
2019-06-04 14:00:00 23.7 26 Sudoeste 46 Sudoeste 0 -- -- 40
2019-06-04 13:00:00 23.2 26 Sur 49 Sudoeste 0 -- -- 41
2019-06-04 12:00:00 23.1 23 Sudoeste 46 Sudoeste 0 -- -- 40
2019-06-04 11:00:00 22 24 Sudoeste 41 Sudoeste 0 -- -- 41
2019-06-04 10:00:00 20 18 Sudoeste 32 Sur 0 -- -- 44
2019-06-04 09:00:00 18.7 7 Sur 14 Sudoeste 0 -- -- 41
2019-06-04 08:00:00 14.2 6 Sudoeste 11 Sudoeste 0 -- -- 48
2019-06-04 07:00:00 12.1 7 Sur 10 Sudoeste 0 -- -- 51
2019-06-04 06:00:00 12.2 9 Sur 16 Sudoeste 0 -- -- 50
2019-06-04 05:00:00 15.1 10 Sudoeste 16 Sudoeste 0 -- -- 39
2019-06-04 04:00:00 15 10 Sur 22 Noroeste 0 -- -- 37
2019-06-04 03:00:00 18.2 17 Oeste 24 Oeste 0 -- -- 30
2019-06-04 02:00:00 17.9 14 Oeste 20 Oeste 0 -- -- 28
2019-06-04 01:00:00 19 13 Oeste 23 Sudoeste 0 -- -- 26
2019-06-04 00:00:00 20.1 14 Oeste 22 Oeste 0 -- -- 24
2019-06-03 23:00:00 19.8 11 Sudoeste 16 Sudoeste 0 -- -- 26
2019-06-03 22:00:00 21.2 11 Sudoeste 15 Sudoeste 0 -- -- 29
2019-06-03 21:00:00 24.4 10 Sudoeste 19 Sudoeste 0 -- -- 29
2019-06-03 20:00:00 26.5 15 Sudoeste 31 Sudoeste 0 -- -- 26
2019-06-03 19:00:00 26.9 10 Sudoeste 31 Sur 0 -- -- 29
2019-06-03 18:00:00 26.7 16 Sudoeste 29 Sudoeste 0 -- -- 28
2019-06-03 17:00:00 28.3 14 Sudoeste 34 Sur 0 -- -- 27
2019-06-03 16:00:00 28 18 Oeste 28 Sudoeste 0 -- -- 29
2019-06-03 15:00:00 26.7 15 Sudoeste 35 Oeste 0 -- -- 31
2019-06-03 14:00:00 27.2 12 Sudoeste 24 Oeste 0 -- -- 33
2019-06-03 13:00:00 25 12 Sudoeste 22 Sudoeste 0 -- -- 36
2019-06-03 12:00:00 22.4 10 Sudoeste 21 Sudoeste 0 -- -- 39
2019-06-03 11:00:00 21.7 9 Sudoeste 16 Sudoeste 0 -- -- 39
2019-06-03 10:00:00 19.7 7 Oeste 14 Sudoeste 0 -- -- 46
2019-06-03 09:00:00 15.8 7 Sudoeste 13 Sudoeste 0 -- -- 61
2019-06-03 08:00:00 15.2 9 Sudoeste 14 Sudoeste 0 -- -- 60
2019-06-03 07:00:00 12.3 4 Sudoeste 7 Noroeste 0 -- -- 72
2019-06-03 06:00:00 12.2 0 Calma 9 Sur 0 -- -- 77
2019-06-03 05:00:00 15.1 6 Sur 15 Sur 0 -- -- 59
2019-06-03 04:00:00 15.8 9 Sudoeste 17 Sur 0 -- -- 58
2019-06-03 03:00:00 17.3 10 Sudoeste 15 Sudoeste 0 -- -- 52
2019-06-03 02:00:00 15.3 4 Sudoeste 14 Este 0 -- -- 64
2019-06-03 01:00:00 16.6 7 Noroeste 10 Noroeste 0 -- -- 53
2019-06-03 00:00:00 16.7 7 Oeste 22 Sur 0 -- -- 61
2019-06-02 23:00:00 19 7 Sur 19 Sudoeste 0 -- -- 54
2019-06-02 22:00:00 18.1 5 Sudoeste 13 Nordeste 0 -- -- 67
2019-06-02 21:00:00 17.8 3 Oeste 44 Este 2 -- -- 79
2019-06-02 20:00:00 25.1 7 Sur 12 Sur 0 -- -- 37
2019-06-02 19:00:00 27.5 4 Sudoeste 19 Oeste 0 -- -- 27
2019-06-02 18:00:00 28.8 8 Oeste 27 Oeste 0 -- -- 29
2019-06-02 17:00:00 27.7 10 Sudoeste 32 Oeste 0 -- -- 29
2019-06-02 16:00:00 30.1 12 Sudoeste 27 Sudoeste 0 -- -- 26
2019-06-02 15:00:00 28.2 17 Oeste 28 Oeste 0 -- -- 24
2019-06-02 14:00:00 28.3 13 Oeste 26 Oeste 0 -- -- 28
2019-06-02 13:00:00 27.1 13 Oeste 26 Sudoeste 0 -- -- 32
2019-06-02 12:00:00 25.4 15 Oeste 24 Oeste 0 -- -- 34
2019-06-02 11:00:00 24 6 Sudoeste 17 Oeste 0 -- -- 35
2019-06-02 10:00:00 21.3 8 Sudoeste 16 Sudoeste 0 -- -- 40
2019-06-02 09:00:00 18.6 8 Sur 12 Sur 0 -- -- 45
2019-06-02 08:00:00 17.3 5 Sudeste 9 Sur 0 -- -- 52
2019-06-02 07:00:00 11.1 6 Sudeste 8 Sudeste 0 -- -- 65
2019-06-02 06:00:00 12.5 5 Sudeste 11 Sur 0 -- -- 60
2019-06-02 05:00:00 13.1 8 Sur 10 Sur 0 -- -- 59
2019-06-02 04:00:00 12.8 3 Este 9 Este 0 -- -- 58
2019-06-02 03:00:00 14.6 7 Este 14 Este 0 -- -- 51
2019-06-02 02:00:00 15.9 11 Este 15 Este 0 -- -- 45
2019-06-02 01:00:00 15.2 9 Este 14 Este 0 -- -- 51
2019-06-02 00:00:00 17.7 10 Este 15 Este 0 -- -- 47
2019-06-01 23:00:00 18.8 8 Este 15 Este 0 -- -- 46
2019-06-01 22:00:00 20.5 9 Este 28 Nordeste 0 -- -- 41
2019-06-01 21:00:00 24 14 Nordeste 29 Nordeste 0 -- -- 36
2019-06-01 20:00:00 27.2 5 Sudeste 16 Este 0 -- -- 25
2019-06-01 19:00:00 28.1 12 Sudeste 21 Este 0 -- -- 23
2019-06-01 18:00:00 29 6 Noroeste 22 Este 0 -- -- 23
2019-06-01 17:00:00 28.7 13 Este 23 Este 0 -- -- 23
2019-06-01 16:00:00 28.2 8 Norte 19 Este 0 -- -- 21
2019-06-01 15:00:00 27.3 8 Nordeste 19 Este 0 -- -- 27
2019-06-01 14:00:00 26.4 7 Este 22 Sudoeste 0 -- -- 27
2019-06-01 13:00:00 25.3 7 Este 16 Sudeste 0 -- -- 31
2019-06-01 12:00:00 23.8 8 Sudeste 14 Sudeste 0 -- -- 38
2019-06-01 11:00:00 22.1 6 Sudeste 17 Sudeste 0 -- -- 43
2019-06-01 10:00:00 19.8 7 Sudeste 15 Sur 0 -- -- 48
2019-06-01 09:00:00 18.3 8 Sur 14 Sur 0 -- -- 49
2019-06-01 08:00:00 17.1 4 Sudeste 8 Este 0 -- -- 50
2019-06-01 07:00:00 10.5 4 Este 7 Este 0 -- -- 64
2019-06-01 06:00:00 9.8 0 Calma 6 Nordeste 0 -- -- 67
2019-06-01 05:00:00 11.6 5 Este 7 Este 0 -- -- 60
2019-06-01 04:00:00 10.2 2 Este 5 Nordeste 0 -- -- 66
2019-06-01 03:00:00 10.6 0 Calma 7 Este 0 -- -- 66
2019-06-01 02:00:00 12.4 6 Este 9 Este 0 -- -- 58
2019-06-01 01:00:00 14.5 8 Este 10 Este 0 -- -- 51
2019-06-01 00:00:00 15.9 10 Este 16 Nordeste 0 -- -- 48
2019-05-31 23:00:00 17 10 Este 19 Nordeste 0 -- -- 45
2019-05-31 22:00:00 19.2 12 Este 21 Este 0 -- -- 41
2019-05-31 21:00:00 22.1 11 Este 25 Este 0 -- -- 34
2019-05-31 20:00:00 24.8 15 Este 27 Este 0 -- -- 28
2019-05-31 19:00:00 26.7 9 Este 21 Nordeste 0 -- -- 25
2019-05-31 18:00:00 27.3 7 Este 24 Este 0 -- -- 23
2019-05-31 17:00:00 27.5 14 Sudeste 26 Este 0 -- -- 22
2019-05-31 16:00:00 26.8 8 Nordeste 20 Nordeste 0 -- -- 24
2019-05-31 15:00:00 26.3 8 Sur 22 Este 0 -- -- 25
2019-05-31 14:00:00 25.2 7 Noroeste 17 Norte 0 -- -- 26
2019-05-31 13:00:00 24.4 6 Noroeste 20 Este 0 -- -- 28
2019-05-31 12:00:00 23 6 Nordeste 19 Nordeste 0 -- -- 32
2019-05-31 11:00:00 21.9 12 Este 18 Este 0 -- -- 38
2019-05-31 10:00:00 20.4 5 Nordeste 12 Nordeste 0 -- -- 46
2019-05-31 09:00:00 19.2 5 Nordeste 8 Nordeste 0 -- -- 51
2019-05-31 08:00:00 16.2 5 Sur 8 Sur 0 -- -- 56
2019-05-31 07:00:00 10.3 6 Sur 12 Sudoeste 0 -- -- 74
2019-05-31 06:00:00 8.6 3 Este 8 Sur 0 -- -- 82
2019-05-31 05:00:00 8.7 4 Sudeste 6 Este 0 -- -- 82
2019-05-31 04:00:00 8.7 3 Norte 9 Nordeste 0 -- -- 82
2019-05-31 03:00:00 11.7 6 Nordeste 11 Nordeste 0 -- -- 69
2019-05-31 02:00:00 11.2 5 Nordeste 10 Este 0 -- -- 69
2019-05-31 01:00:00 13.2 5 Nordeste 14 Norte 0 -- -- 61
2019-05-31 00:00:00 15.1 9 Norte 18 Nordeste 0 -- -- 54
2019-05-30 23:00:00 16.3 10 Nordeste 18 Nordeste 0 -- -- 48
2019-05-30 22:00:00 17.5 10 Nordeste 23 Nordeste 0 -- -- 43
2019-05-30 21:00:00 20.2 13 Nordeste 30 Nordeste 0 -- -- 35
2019-05-30 20:00:00 22.2 17 Nordeste 32 Norte 0 -- -- 29
2019-05-30 19:00:00 23.5 14 Nordeste 32 Nordeste 0 -- -- 26
2019-05-30 18:00:00 24.2 15 Nordeste 33 Nordeste 0 -- -- 26
2019-05-30 17:00:00 24.5 16 Nordeste 35 Este 0 -- -- 26
2019-05-30 16:00:00 24.2 17 Nordeste 31 Este 0 -- -- 24
2019-05-30 15:00:00 23.8 15 Nordeste 29 Nordeste 0 -- -- 23
2019-05-30 14:00:00 22.9 17 Nordeste 30 Norte 0 -- -- 31
2019-05-30 13:00:00 21.5 14 Norte 27 Norte 0 -- -- 34
2019-05-30 12:00:00 20.3 12 Norte 27 Nordeste 0 -- -- 38
2019-05-30 11:00:00 18.7 10 Norte 21 Norte 0 -- -- 45
2019-05-30 10:00:00 16.4 11 Norte 17 Norte 0 -- -- 51
2019-05-30 09:00:00 14.8 9 Noroeste 13 Norte 0 -- -- 56
2019-05-30 08:00:00 13.4 6 Noroeste 10 Noroeste 0 -- -- 60
2019-05-30 07:00:00 5.6 0 Calma 7 Nordeste 0 -- -- 86
2019-05-30 06:00:00 5.5 4 Noroeste 13 Noroeste 0 -- -- 86
2019-05-30 05:00:00 7.9 8 Norte 15 Nordeste 0 -- -- 72
2019-05-30 04:00:00 9 7 Nordeste 17 Norte 0 -- -- 69
2019-05-30 03:00:00 10.2 9 Norte 15 Noroeste 0 -- -- 64
2019-05-30 02:00:00 9.4 5 Norte 19 Norte 0 -- -- 68
2019-05-30 01:00:00 10.8 14 Norte 31 Norte 0 -- -- 63
2019-05-30 00:00:00 10.7 15 Norte 23 Norte 0 -- -- 65
2019-05-29 23:00:00 10.7 10 Norte 19 Norte 0 -- -- 67
2019-05-29 22:00:00 11.5 13 Norte 28 Norte 0 -- -- 64
2019-05-29 21:00:00 13.1 21 Norte 42 Norte 0 -- -- 57
2019-05-29 20:00:00 14.9 15 Norte 32 Norte 0 -- -- 53
2019-05-29 19:00:00 16.5 15 Norte 39 Norte 0 -- -- 49
2019-05-29 18:00:00 16.9 19 Norte 43 Norte 0 -- -- 48
2019-05-29 17:00:00 16.6 26 Norte 40 Norte 0 -- -- 50
2019-05-29 16:00:00 16.7 21 Norte 39 Nordeste 0 -- -- 49
2019-05-29 15:00:00 16.8 13 Nordeste 27 Nordeste 0 -- -- 52
2019-05-29 14:00:00 16.5 10 Norte 24 Norte 0 -- -- 53
2019-05-29 13:00:00 15.1 10 Nordeste 28 Nordeste 0 -- -- 54
2019-05-29 12:00:00 13.3 17 Nordeste 27 Norte 0 -- -- 57
2019-05-29 11:00:00 12 21 Norte 33 Nordeste 0 -- -- 61
2019-05-29 10:00:00 11.7 13 Norte 28 Norte 0 -- -- 64
2019-05-29 09:00:00 9 6 Norte 13 Norte 0 -- -- 74
2019-05-29 08:00:00 7.6 10 Norte 17 Noroeste 0 -- -- 73
2019-05-29 07:00:00 4.7 10 Noroeste 16 Norte 0 -- -- 85
2019-05-29 06:00:00 2.7 3 Noroeste 9 Norte 0 -- -- 86
2019-05-29 05:00:00 4.8 6 Norte 14 Norte 0 -- -- 79
2019-05-29 04:00:00 5.2 9 Norte 23 Norte 0 -- -- 76
2019-05-29 03:00:00 5.7 8 Norte 20 Nordeste 0 -- -- 72
2019-05-29 02:00:00 5.4 11 Nordeste 27 Nordeste 0 -- -- 75
2019-05-29 01:00:00 6.3 10 Nordeste 21 Nordeste 0 -- -- 73
2019-05-29 00:00:00 5.5 6 Este 12 Nordeste 0 -- -- 77
2019-05-28 23:00:00 7.2 7 Este 21 Este 0 -- -- 69
2019-05-28 22:00:00 8.4 10 Este 30 Noroeste 0 -- -- 65
2019-05-28 21:00:00 10.3 17 Norte 35 Norte 0 -- -- 58
2019-05-28 20:00:00 12.1 20 Norte 38 Noroeste 0 -- -- 53
2019-05-28 19:00:00 13.7 18 Nordeste 35 Nordeste 0 -- -- 51
2019-05-28 18:00:00 14.6 20 Norte 41 Nordeste 0 -- -- 48
2019-05-28 17:00:00 15.4 22 Norte 41 Noroeste 0 -- -- 45
2019-05-28 16:00:00 16.1 16 Norte 36 Nordeste 0 -- -- 47
2019-05-28 15:00:00 15.8 16 Norte 32 Este 0 -- -- 46
2019-05-28 14:00:00 15.6 14 Norte 27 Norte 0 -- -- 47
2019-05-28 13:00:00 14.7 12 Noroeste 24 Norte 0 -- -- 49
2019-05-28 12:00:00 12.5 12 Norte 24 Nordeste 0 -- -- 50
2019-05-28 11:00:00 11.6 15 Nordeste 31 Nordeste 0 -- -- 52
2019-05-28 10:00:00 10.7 11 Norte 19 Norte 0 -- -- 57
2019-05-28 09:00:00 8.6 10 Norte 19 Norte 0 -- -- 67
2019-05-28 08:00:00 6.1 4 Norte 12 Norte 0 -- -- 76
2019-05-28 07:00:00 3.6 6 Norte 12 Nordeste 0 -- -- 86
2019-05-28 06:00:00 3.8 5 Nordeste 14 Nordeste 0 -- -- 83
2019-05-28 05:00:00 4.9 9 Nordeste 15 Nordeste 0 -- -- 80
2019-05-28 04:00:00 5.2 7 Nordeste 13 Nordeste 0 -- -- 81
2019-05-28 03:00:00 6 8 Este 17 Nordeste 0 -- -- 80
2019-05-28 02:00:00 7.3 10 Nordeste 20 Nordeste 0 -- -- 76
2019-05-28 01:00:00 8.3 9 Nordeste 28 Norte 0 -- -- 77
2019-05-28 00:00:00 9.6 14 Nordeste 29 Norte 0 -- -- 74
2019-05-27 23:00:00 10.7 13 Norte 28 Norte 0 -- -- 75
2019-05-27 22:00:00 12.1 14 Norte 29 Norte 0 -- -- 70
2019-05-27 21:00:00 14.2 13 Norte 31 Norte 0 -- -- 63
2019-05-27 20:00:00 16.2 13 Nordeste 24 Norte 0 -- -- 53
2019-05-27 19:00:00 17.9 13 Nordeste 30 Noroeste 0 -- -- 54
2019-05-27 18:00:00 18.4 19 Norte 40 Norte 0 -- -- 52
2019-05-27 17:00:00 19.4 22 Norte 37 Nordeste 0 -- -- 49
2019-05-27 16:00:00 20.9 19 Nordeste 32 Nordeste 0 -- -- 44
2019-05-27 15:00:00 20 12 Norte 26 Norte 0 -- -- 46
2019-05-27 14:00:00 20.6 10 Noroeste 36 Norte 0 -- -- 44
2019-05-27 13:00:00 19.8 7 Norte 17 Norte 0 -- -- 45
2019-05-27 12:00:00 19.6 5 Este 14 Noroeste 0 -- -- 47
2019-05-27 11:00:00 18.8 5 Norte 15 Oeste 0 -- -- 48
2019-05-27 10:00:00 17.1 5 Sudoeste 12 Noroeste 0 -- -- 51
2019-05-27 09:00:00 14.4 9 Noroeste 14 Oeste 0 -- -- 61
2019-05-27 08:00:00 9.7 6 Sudoeste 11 Oeste 0 -- -- 82
2019-05-27 07:00:00 6.6 4 Norte 7 Noroeste 0 -- -- 90
2019-05-27 06:00:00 6.5 2 Norte 8 Noroeste 0 -- -- 87
2019-05-27 05:00:00 6.4 7 Noroeste 11 Noroeste 0 -- -- 89
2019-05-27 04:00:00 5.3 4 Oeste 9 Sudoeste 0 -- -- 95
2019-05-27 03:00:00 5.7 0 Calma 6 Oeste 0 -- -- 94
2019-05-27 02:00:00 5.7 2 Este 9 Este 0 -- -- 94
2019-05-27 01:00:00 6.7 4 Nordeste 8 Este 0 -- -- 90
2019-05-27 00:00:00 7.7 0 Calma 20 Norte 0 -- -- 84
2019-05-26 23:00:00 10.4 13 Norte 22 Norte 0 -- -- 73
2019-05-26 22:00:00 11.4 12 Norte 28 Nordeste 0 -- -- 69
2019-05-26 21:00:00 13 9 Norte 28 Norte 0 -- -- 66
2019-05-26 20:00:00 15.1 15 Nordeste 36 Norte 0 -- -- 59
2019-05-26 19:00:00 16.7 19 Norte 32 Norte 0 -- -- 55
2019-05-26 18:00:00 17.9 17 Nordeste 35 Nordeste 0 -- -- 51
2019-05-26 17:00:00 18.2 19 Norte 35 Nordeste 0 -- -- 46
2019-05-26 16:00:00 17.4 21 Nordeste 37 Norte 0 -- -- 46
2019-05-26 15:00:00 16.6 19 Nordeste 33 Nordeste 0 -- -- 48
2019-05-26 14:00:00 16.1 15 Norte 34 Nordeste 0 -- -- 55
2019-05-26 13:00:00 16 12 Nordeste 26 Norte 0 -- -- 53
2019-05-26 12:00:00 13.9 14 Nordeste 27 Norte 0 -- -- 60
2019-05-26 11:00:00 11.9 17 Norte 30 Norte 0 -- -- 62
2019-05-26 10:00:00 11.1 14 Norte 28 Norte 0 -- -- 67
2019-05-26 09:00:00 10.2 10 Norte 17 Norte 0 -- -- 71
2019-05-26 08:00:00 7.8 6 Norte 10 Nordeste 0 -- -- 75
2019-05-26 07:00:00 1.4 3 Norte 8 Nordeste 0 -- -- 99
2019-05-26 06:00:00 3.5 5 Nordeste 10 Nordeste 0 -- -- 100
2019-05-26 05:00:00 1.8 0 Calma 6 Nordeste 0 -- -- 99
2019-05-26 04:00:00 2.7 0 Calma 11 Sudoeste 0 -- -- 95
2019-05-26 03:00:00 4 5 Sur 10 Este 0 -- -- 89
2019-05-26 02:00:00 5.5 5 Oeste 20 Nordeste 0 -- -- 83
2019-05-26 01:00:00 7.9 14 Nordeste 23 Nordeste 0 -- -- 76
2019-05-26 00:00:00 8.2 15 Nordeste 36 Norte 0 -- -- 76